Estación Meteorológica Peña el Pijo (Robertgarden) [ 01/30/23 15:28:03 CET ]

Fecha Hora Presion(HPa) Temp (°C) Humedad % Rocio (°C) Viento ( m/s) Direccion Lluvia 1Hora(mm) Lluvia 24H(mm) LLuvia Total(mm)
2012-Jul-15 01:01:11 1013.300 17.6 43 4.8         167.83
2012-Jul-15 02:01:19 1013.400 16.8 44 4.4         167.83
2012-Jul-15 03:01:43 1013.400 15.0 46 3.4         167.83
2012-Jul-15 04:01:41 1013.300 13.7 48 2.9         167.83
2012-Jul-15 05:01:45 1013.400 12.1 50 2.0         167.83
2012-Jul-15 06:01:48 1013.800 10.7 53 1.5         167.83
2012-Jul-15 07:01:20 1014.300 9.4 57 1.3         167.83
2012-Jul-15 08:01:16 1014.100 11.4 57 3.1         167.83
2012-Jul-15 09:01:16 1014.300 18.4 41 4.9         167.83
2012-Jul-15 10:01:16 1014.400 23.5 47 11.5         167.83
2012-Jul-15 11:01:17 1014.600 26.8 44 13.5         167.83
2012-Jul-15 12:01:16 1014.900 29.4 37 13.1         167.83
2012-Jul-15 13:01:17 1015.000 31.8 32 13.0         167.83
2012-Jul-15 14:01:15 1014.600 32.3 31 13.0 1.7 ENE     167.83
2012-Jul-15 15:01:14 1014.000 34.1 26 11.6         167.83
2012-Jul-15 16:01:14 1013.800 35.3 24 11.4         167.83
2012-Jul-15 17:01:15 1013.800 37.3 25 13.8 1.4 NW     167.83
2012-Jul-15 18:01:17 1013.900 32.9 33 14.4 4.4 NE     167.83
2012-Jul-15 19:01:16 1014.000 31.4 36 14.4 3.2 E     167.83
2012-Jul-15 20:01:11 1014.600 28.4 44 14.9 1.6 NE     167.83
2012-Jul-15 21:01:12 1015.500 25.3 52 14.7 0.9 NE     167.83
2012-Jul-15 22:01:20 1015.900 23.4 58 14.6         167.83
2012-Jul-15 23:01:13 1016.800 21.9 65 15.0         167.83

Temperatura Máxima:37°    Temperatura Mínima:
Presión Máxima:1016.800 Hpa    Presión Mínima:1013.300 Hpa


Volver